KWVL/WVL METAR and TAF weather

Enter ICAO airport designator
Station Type Date Time Source
KWVL METAR 2021/05/10 21:56 UTC NOAA

KWVL 102156Z AUTO VRB05KT 10SM FEW100 16/05 A2978 RMK AO2 SLP110 T01560050


Station Type Date Time Source
KWVL Decoded METAR 2021/05/10 21:56 UTC NOAA

Waterville, Waterville Robert LaFleur Airport, ME, United States (KWVL) 44-32N 069-41W
May 10, 2021 - 05:56 PM EDT / 2021.05.10 2156 UTC
Wind: Variable at 6 MPH (5 KT):0
Visibility: 10 mile(s):0
Sky conditions: mostly clear
Temperature: 60.1 F (15.6 C)
Dew Point: 41.0 F (5.0 C)
Relative Humidity: 49%
Pressure (altimeter): 29.78 in. Hg (1008 hPa)
ob: KWVL 102156Z AUTO VRB05KT 10SM FEW100 16/05 A2978 RMK AO2 SLP110 T01560050
cycle: 22

Station Type Date Time Source
KWVL TAF UTC NOAA

Error!

Example: see airport list